Aeroporto :
LOGIN :

Iscrizione | Disclaimer

   EN    FR    IT 

 










Sommario :    VFR   VFR Marginale   IFR   IFR Intensivo   IFR Molto Intensivo
Visibilità : 
Base nubi : 
>= 8 km
>= 3000ft
5 / 8 km
1000 / 3000 ft
1500m / 5 km
500 / 1000 ft
800 / 1500m
200 / 500 ft
< 800m
< 200 ft
Simboli :   Temporali  Nebbia  Neve Forte  Precipitazioni Forti  Vento > 20 kt
SIGMETs :   Varie  Temporali  Ghiacco  Turbolenza  Onda orograficha  Ceneri Vulcaniche






- Altitudine del aeroporto : 121 ft
- Codice IATA : HUY


EGNJ - Humberside

ULTIMO METAR :
  • 090220Z AUTO 22011KT 9999 SCT020/// BKN027/// BKN033/// 06/04 Q0988

METARs OBSOLETI :
  • 090150Z AUTO 21009KT 9999 BKN021/// BKN026/// OVC049/// 06/04 Q0987
  • 090120Z AUTO 21013KT 9999 BKN019/// BKN024/// OVC035/// 06/04 Q0987
  • 090050Z AUTO 22019KT 9999 SCT023/// BKN029/// 06/03 Q0986
  • 090020Z AUTO 22019KT 9999 FEW015/// SCT020/// BKN025/// 06/03 Q0986 RERA
  • 082350Z AUTO 21017KT 9999 FEW023/// SCT029/// 05/03 Q0986

TAF TAF EGNJ
Valido dal 09 a 03 ore il 09 a 12 ore UTC


090159Z 0903/0912 24008KT 9999 SCT020
BECMG 0903/0906 32015KT
TEMPO 0906/0912 32020G35KT
PROB40
TEMPO 0906/0912 7000 SHRA
ATIS : +44 1652 682 020



MetMap, La meteo Aeronautica in un colpo d'occhio ! - Copyright ORBIFLY Dicembre 2007 - Disclaimer

ORBIFLY MET'MAP TEAM :

Programmazione e sviluppo : Alexandra Zaïnal
Concezione : Baudouin d'Aumeries
Aiuto per la programmazione : Marc-Olivier Méhu
Supporto tecnico e logistico : Manuel Goepfert
Aiuto per la traduzione : Arnaldo La Scala

Contatto : metmap@orbifly.com




FONTI E CREDITI :

   NOAA